createdAt,value
2019-04-04T00:01:47.782Z,95652.52
2019-04-04T00:04:16.401Z,95635.69
2019-04-04T00:06:45.772Z,95642.23
2019-04-04T00:09:15.203Z,95648.97
2019-04-04T00:11:44.554Z,95641.95
2019-04-04T00:14:13.914Z,95633.41
2019-04-04T00:16:43.280Z,95629.70
2019-04-04T00:19:12.637Z,95618.33
2019-04-04T00:21:42.028Z,95629.25
2019-04-04T00:24:11.382Z,95626.90
2019-04-04T00:26:42.029Z,95633.11
2019-04-04T00:29:11.966Z,95633.34
2019-04-04T00:31:41.342Z,95639.52
2019-04-04T00:34:13.491Z,95628.96
2019-04-04T00:36:41.772Z,95615.56
2019-04-04T00:39:11.202Z,95613.50
2019-04-04T00:41:40.574Z,95618.67
2019-04-04T00:44:09.951Z,95620.75
2019-04-04T00:46:39.314Z,95620.73
2019-04-04T00:49:08.687Z,95606.33
2019-04-04T00:51:39.054Z,95612.16
2019-04-04T00:54:09.134Z,95614.36
2019-04-04T00:56:38.510Z,95604.39
2019-04-04T00:59:07.873Z,95594.42
2019-04-04T01:01:37.243Z,95587.95
2019-04-04T01:04:06.607Z,95580.81
2019-04-04T01:06:36.062Z,95561.05
2019-04-04T01:09:11.542Z,95562.92
2019-04-04T01:11:37.595Z,95561.67
2019-04-04T01:14:07.104Z,95556.41
2019-04-04T01:16:36.556Z,95553.13
2019-04-04T01:19:05.967Z,95558.70
2019-04-04T01:21:35.330Z,95562.78
2019-04-04T01:24:04.761Z,95557.02
2019-04-04T01:26:35.175Z,95549.68
2019-04-04T01:29:05.911Z,95554.60
2019-04-04T01:31:35.423Z,95558.29
2019-04-04T01:34:04.853Z,95546.08
2019-04-04T01:36:34.219Z,95538.33
2019-04-04T01:39:05.751Z,95530.80
2019-04-04T01:41:36.398Z,95536.55
2019-04-04T01:44:06.336Z,95541.11
2019-04-04T01:46:35.766Z,95533.90
2019-04-04T01:49:05.205Z,95525.14
2019-04-04T01:51:34.555Z,95521.02
2019-04-04T01:54:03.985Z,95518.17
2019-04-04T01:56:35.001Z,95510.67
2019-04-04T01:59:04.886Z,95510.86
2019-04-04T02:01:34.231Z,95508.60
2019-04-04T02:04:03.622Z,95505.14
2019-04-04T02:06:32.959Z,95505.99
2019-04-04T02:09:02.850Z,95489.31
2019-04-04T02:11:32.936Z,95474.83
2019-04-04T02:14:02.385Z,95478.00
2019-04-04T02:16:31.738Z,95477.31
2019-04-04T02:19:01.093Z,95486.88
2019-04-04T02:21:30.532Z,95477.14
2019-04-04T02:24:01.315Z,95471.83
2019-04-04T02:26:30.941Z,95469.04
2019-04-04T02:29:00.309Z,95466.97
2019-04-04T02:31:33.064Z,95463.48
2019-04-04T02:34:05.274Z,95460.74
2019-04-04T02:36:33.493Z,95453.13
2019-04-04T02:39:11.639Z,95455.97
2019-04-04T02:41:41.132Z,95444.42
2019-04-04T02:44:10.598Z,95430.09
2019-04-04T02:46:44.453Z,95433.58
2019-04-04T02:49:11.172Z,95436.27
2019-04-04T02:51:41.467Z,95439.89
2019-04-04T02:54:10.943Z,95433.36
2019-04-04T02:56:40.324Z,95425.91
2019-04-04T02:59:09.798Z,95421.48
2019-04-04T03:01:39.199Z,95422.77
2019-04-04T03:04:08.589Z,95416.87
2019-04-04T03:06:38.168Z,95411.64
2019-04-04T03:09:10.104Z,95408.77
2019-04-04T03:11:38.709Z,95408.01
2019-04-04T03:14:08.129Z,95413.45
2019-04-04T03:16:37.603Z,95405.59
2019-04-04T03:19:09.881Z,95391.44
2019-04-04T03:21:38.088Z,95393.23
2019-04-04T03:24:07.513Z,95397.23
2019-04-04T03:26:36.854Z,95394.88
2019-04-04T03:29:08.409Z,95377.14
2019-04-04T03:31:39.057Z,95381.34
2019-04-04T03:34:10.932Z,95374.86
2019-04-04T03:36:39.467Z,95370.86
2019-04-04T03:39:08.927Z,95370.00
2019-04-04T03:41:38.279Z,95365.98
2019-04-04T03:44:07.630Z,95373.05
2019-04-04T03:46:38.872Z,95376.76
2019-04-04T03:49:08.065Z,95378.09
2019-04-04T03:51:38.317Z,95373.81
2019-04-04T03:54:23.242Z,95361.34
2019-04-04T03:56:51.899Z,95359.09
2019-04-04T03:59:21.375Z,95353.58
2019-04-04T04:01:50.722Z,95357.42
2019-04-04T04:04:20.185Z,95357.88
2019-04-04T04:06:49.530Z,95344.63
2019-04-04T04:09:18.884Z,95337.31
2019-04-04T04:11:48.259Z,95339.69
2019-04-04T04:14:21.643Z,95347.05
2019-04-04T04:16:48.665Z,95344.50
2019-04-04T04:19:18.015Z,95336.17
2019-04-04T04:21:47.406Z,95329.33
2019-04-04T04:24:16.810Z,95337.97
2019-04-04T04:26:46.246Z,95331.95
2019-04-04T04:29:15.593Z,95335.59
2019-04-04T04:31:48.134Z,95336.23
2019-04-04T04:34:16.085Z,95328.34
2019-04-04T04:36:47.669Z,95322.56
2019-04-04T04:39:16.490Z,95315.05
2019-04-04T04:41:45.848Z,95304.94
2019-04-04T04:44:15.197Z,95305.69
2019-04-04T04:46:44.586Z,95305.44
2019-04-04T04:49:13.951Z,95292.52
2019-04-04T04:51:44.199Z,95289.52
2019-04-04T04:54:13.638Z,95291.08
2019-04-04T04:56:43.006Z,95271.84
2019-04-04T04:59:13.334Z,95264.82
2019-04-04T05:01:43.321Z,95272.12
2019-04-04T05:04:12.670Z,95280.06
2019-04-04T05:06:42.032Z,95269.16
2019-04-04T05:09:13.684Z,95280.06
2019-04-04T05:11:42.469Z,95272.87
2019-04-04T05:14:11.808Z,95266.32
2019-04-04T05:16:41.171Z,95260.48
2019-04-04T05:19:10.517Z,95258.03
2019-04-04T05:21:39.955Z,95254.93
2019-04-04T05:24:09.306Z,95247.63
2019-04-04T05:26:38.935Z,95246.42
2019-04-04T05:29:08.415Z,95240.55
2019-04-04T05:31:37.911Z,95242.82
2019-04-04T05:34:07.375Z,95224.61
2019-04-04T05:36:37.045Z,95227.03
2019-04-04T05:39:07.831Z,95228.13
2019-04-04T05:41:37.542Z,95216.42
2019-04-04T05:44:09.134Z,95213.86
2019-04-04T05:46:38.417Z,95205.05
2019-04-04T05:49:08.394Z,95198.36
2019-04-04T05:51:38.171Z,95202.23
2019-04-04T05:54:08.337Z,95186.24
2019-04-04T05:56:37.866Z,95196.23
2019-04-04T05:59:07.247Z,95192.97
2019-04-04T06:01:36.604Z,95175.06
2019-04-04T06:04:06.050Z,95172.11
2019-04-04T06:06:35.596Z,95158.98
2019-04-04T06:09:07.177Z,95170.51
2019-04-04T06:11:36.551Z,95159.21
2019-04-04T06:14:05.910Z,95154.37
2019-04-04T06:16:35.673Z,95146.22
2019-04-04T06:19:05.307Z,95142.84
2019-04-04T06:21:34.673Z,95144.74
2019-04-04T06:24:04.174Z,95141.06
2019-04-04T06:26:33.620Z,95133.94
2019-04-04T06:29:05.549Z,95126.80
2019-04-04T06:31:34.125Z,95118.47
2019-04-04T06:34:05.785Z,95108.43
2019-04-04T06:36:34.804Z,95112.86
2019-04-04T06:39:07.008Z,95096.52
2019-04-04T06:41:36.710Z,95103.30
2019-04-04T06:44:06.141Z,95112.02
2019-04-04T06:46:35.596Z,95105.22
2019-04-04T06:49:05.178Z,95101.84
2019-04-04T06:51:34.582Z,95101.27
2019-04-04T06:54:04.116Z,95102.89
2019-04-04T06:56:33.484Z,95116.16
2019-04-04T06:59:02.852Z,95113.44
2019-04-04T07:01:32.286Z,95107.16
2019-04-04T07:04:01.681Z,95102.31
2019-04-04T07:06:31.140Z,95094.64
2019-04-04T07:09:00.508Z,95080.18
2019-04-04T07:11:29.869Z,95092.96
2019-04-04T07:13:59.764Z,95077.06
2019-04-04T07:16:29.197Z,95067.89
2019-04-04T07:18:58.585Z,95068.56
2019-04-04T07:21:28.023Z,95067.75
2019-04-04T07:23:59.503Z,95080.14
2019-04-04T07:26:28.489Z,95061.66
2019-04-04T07:28:57.975Z,95063.17
2019-04-04T07:31:27.381Z,95070.02
2019-04-04T07:33:56.844Z,95066.47
2019-04-04T07:36:26.213Z,95068.55
2019-04-04T07:38:55.655Z,95077.83
2019-04-04T07:41:25.053Z,95079.42
2019-04-04T07:43:54.456Z,95070.83
2019-04-04T07:46:24.163Z,95085.90
2019-04-04T07:48:53.557Z,95076.33
2019-04-04T07:51:22.971Z,95080.14
2019-04-04T07:53:52.370Z,95080.05
2019-04-04T07:56:21.806Z,95089.39
2019-04-04T07:58:51.197Z,95075.98
2019-04-04T08:01:20.569Z,95076.09
2019-04-04T08:03:49.950Z,95068.23
2019-04-04T08:06:19.407Z,95066.71
2019-04-04T08:08:48.786Z,95058.17
2019-04-04T08:11:18.237Z,95055.28
2019-04-04T08:13:47.600Z,95059.49
2019-04-04T08:16:16.990Z,95056.04
2019-04-04T08:18:46.352Z,95045.80
2019-04-04T08:21:15.805Z,95046.05
2019-04-04T08:23:45.245Z,95055.03
2019-04-04T08:26:14.689Z,95059.81
2019-04-04T08:28:44.074Z,95059.87
2019-04-04T08:31:13.453Z,95058.05
2019-04-04T08:33:42.805Z,95064.58
2019-04-04T08:36:12.184Z,95066.78
2019-04-04T08:38:41.545Z,95071.80
2019-04-04T08:41:10.912Z,95062.37
2019-04-04T08:43:40.266Z,95067.41
2019-04-04T08:46:09.700Z,95068.91
2019-04-04T08:48:39.141Z,95061.43
2019-04-04T08:51:08.569Z,95063.88
2019-04-04T08:53:40.173Z,95060.16
2019-04-04T08:56:09.059Z,95051.94
2019-04-04T08:58:38.433Z,95050.75
2019-04-04T09:01:08.420Z,95065.39
2019-04-04T09:03:37.896Z,95074.19
2019-04-04T09:06:07.372Z,95062.06
2019-04-04T09:08:36.746Z,95065.12
2019-04-04T09:11:06.330Z,95068.77
2019-04-04T09:13:35.769Z,95078.99
2019-04-04T09:16:05.279Z,95078.87
2019-04-04T09:18:34.637Z,95084.30
2019-04-04T09:21:04.164Z,95092.33
2019-04-04T09:23:33.525Z,95091.05
2019-04-04T09:26:05.792Z,95097.08
2019-04-04T09:28:33.998Z,95114.55
2019-04-04T09:31:03.464Z,95118.46
2019-04-04T09:33:33.044Z,95111.91
2019-04-04T09:36:02.846Z,95117.42
2019-04-04T09:38:32.201Z,95108.67
2019-04-04T09:41:01.576Z,95114.69
2019-04-04T09:43:30.956Z,95120.20
2019-04-04T09:46:00.414Z,95117.05
2019-04-04T09:48:29.860Z,95123.06
2019-04-04T09:50:59.233Z,95126.58
2019-04-04T09:53:28.586Z,95127.08
2019-04-04T09:55:57.967Z,95120.58
2019-04-04T09:58:27.357Z,95127.06
2019-04-04T10:00:56.723Z,95133.48
2019-04-04T10:03:26.768Z,95122.94
2019-04-04T10:05:56.223Z,95117.62
2019-04-04T10:08:25.595Z,95120.00
2019-04-04T10:10:55.035Z,95130.77
2019-04-04T10:13:24.479Z,95129.02
2019-04-04T10:15:53.921Z,95130.72
2019-04-04T10:18:23.382Z,95131.93
2019-04-04T10:20:54.402Z,95131.81
2019-04-04T10:23:23.790Z,95138.73
2019-04-04T10:25:53.165Z,95134.06
2019-04-04T10:28:23.502Z,95118.31
2019-04-04T10:30:53.042Z,95127.34
2019-04-04T10:33:24.613Z,95132.20
2019-04-04T10:35:53.975Z,95131.47
2019-04-04T10:38:23.401Z,95118.13
2019-04-04T10:40:52.851Z,95129.64
2019-04-04T10:43:22.298Z,95111.80
2019-04-04T10:45:51.672Z,95129.82
2019-04-04T10:48:21.045Z,95147.73
2019-04-04T10:50:50.488Z,95135.39
2019-04-04T10:53:19.932Z,95139.05
2019-04-04T10:55:49.373Z,95117.48
2019-04-04T10:58:18.738Z,95158.41
2019-04-04T11:00:48.162Z,95124.30
2019-04-04T11:03:17.572Z,95121.34
2019-04-04T11:05:46.947Z,95142.75
2019-04-04T11:08:16.561Z,95131.23
2019-04-04T11:10:46.006Z,95131.17
2019-04-04T11:13:15.380Z,95131.39
2019-04-04T11:15:44.830Z,95133.36
2019-04-04T11:18:14.206Z,95134.28
2019-04-04T11:20:43.574Z,95129.36
2019-04-04T11:23:12.964Z,95138.98
2019-04-04T11:25:42.317Z,95130.63
2019-04-04T11:28:11.689Z,95136.97
2019-04-04T11:30:41.087Z,95123.52
2019-04-04T11:33:10.454Z,95129.13
2019-04-04T11:35:39.900Z,95121.02
2019-04-04T11:38:09.291Z,95114.83
2019-04-04T11:40:38.838Z,95100.42
2019-04-04T11:43:08.211Z,95096.78
2019-04-04T11:45:37.643Z,95099.53
2019-04-04T11:48:07.108Z,95098.22
2019-04-04T11:50:36.489Z,95087.45
2019-04-04T11:53:05.959Z,95090.28
2019-04-04T11:55:35.312Z,95093.23
2019-04-04T11:58:05.030Z,95090.52
2019-04-04T12:00:36.424Z,95080.16
2019-04-04T12:03:05.807Z,95080.67
2019-04-04T12:05:35.186Z,95081.78
2019-04-04T12:08:04.670Z,95076.50
2019-04-04T12:10:34.040Z,95078.59
2019-04-04T12:13:03.412Z,95088.59
2019-04-04T12:15:32.814Z,95087.52
2019-04-04T12:18:02.176Z,95091.79
2019-04-04T12:20:31.534Z,95088.03
2019-04-04T12:23:00.909Z,95085.64
2019-04-04T12:25:30.278Z,95086.05
2019-04-04T12:27:59.719Z,95086.06
2019-04-04T12:30:29.084Z,95097.20
2019-04-04T12:32:58.469Z,95091.20
2019-04-04T12:35:27.841Z,95098.15
2019-04-04T12:37:57.323Z,95092.41
2019-04-04T12:40:26.684Z,95098.29
2019-04-04T12:42:56.137Z,95111.89
2019-04-04T12:45:25.494Z,95110.61
2019-04-04T12:47:54.866Z,95108.02
2019-04-04T12:50:24.238Z,95098.42
2019-04-04T12:52:53.681Z,95105.84
2019-04-04T12:55:23.297Z,95111.72
2019-04-04T12:57:52.639Z,95113.54
2019-04-04T13:00:22.116Z,95116.52
2019-04-04T13:02:51.475Z,95121.42
2019-04-04T13:05:20.860Z,95124.09
2019-04-04T13:07:50.226Z,95126.28
2019-04-04T13:10:32.076Z,95129.39
2019-04-04T13:12:50.832Z,95127.94
2019-04-04T13:15:20.278Z,95132.52
2019-04-04T13:17:49.664Z,95124.81
2019-04-04T13:20:19.284Z,95121.27
2019-04-04T13:22:48.668Z,95115.72
2019-04-04T13:25:18.113Z,95121.41
2019-04-04T13:27:47.542Z,95126.72
2019-04-04T13:30:17.000Z,95134.07
2019-04-04T13:32:46.383Z,95149.41
2019-04-04T13:35:15.926Z,95143.66
2019-04-04T13:37:45.573Z,95147.60
2019-04-04T13:40:15.177Z,95147.00
2019-04-04T13:42:44.856Z,95151.08
2019-04-04T13:45:14.461Z,95147.47
2019-04-04T13:47:43.933Z,95141.42
2019-04-04T13:50:13.755Z,95144.44
2019-04-04T13:52:43.119Z,95154.44
2019-04-04T13:55:12.657Z,95168.33
2019-04-04T13:57:42.091Z,95176.46
2019-04-04T14:00:11.711Z,95178.49
2019-04-04T14:02:41.067Z,95171.98
2019-04-04T14:05:14.047Z,95185.98
2019-04-04T14:07:43.710Z,95194.66
2019-04-04T14:10:12.832Z,95191.48
2019-04-04T14:12:42.184Z,95199.83
2019-04-04T14:15:11.691Z,95212.08
2019-04-04T14:17:43.673Z,95216.64
2019-04-04T14:20:12.424Z,95220.47
2019-04-04T14:22:41.782Z,95220.56
2019-04-04T14:25:11.435Z,95230.05
2019-04-04T14:27:40.861Z,95232.11
2019-04-04T14:30:11.193Z,95235.31
2019-04-04T14:32:40.542Z,95233.62
2019-04-04T14:35:10.171Z,95250.68
2019-04-04T14:37:39.599Z,95267.08
2019-04-04T14:40:09.307Z,95279.08
2019-04-04T14:42:38.749Z,95283.00
2019-04-04T14:45:08.201Z,95292.91
2019-04-04T14:47:37.641Z,95302.67
2019-04-04T14:50:07.509Z,95302.67
2019-04-04T14:52:39.362Z,95308.79
2019-04-04T14:55:08.182Z,95321.51
2019-04-04T14:57:37.560Z,95335.94
2019-04-04T15:00:09.184Z,95326.52
2019-04-04T15:02:38.613Z,95320.87
2019-04-04T15:05:08.159Z,95326.58
2019-04-04T15:07:37.590Z,95326.95
2019-04-04T15:10:07.363Z,95323.56
2019-04-04T15:12:36.728Z,95330.14
2019-04-04T15:15:06.467Z,95351.14
2019-04-04T15:17:35.905Z,95350.23
2019-04-04T15:20:05.658Z,95357.55
2019-04-04T15:22:35.018Z,95360.32
2019-04-04T15:25:04.572Z,95368.20
2019-04-04T15:27:33.939Z,95383.22
2019-04-04T15:30:03.393Z,95373.39
2019-04-04T15:32:32.777Z,95374.29
2019-04-04T15:35:02.205Z,95377.46
2019-04-04T15:37:31.562Z,95380.73
2019-04-04T15:40:01.001Z,95382.70
2019-04-04T15:42:30.364Z,95389.41
2019-04-04T15:44:59.788Z,95398.41
2019-04-04T15:47:29.178Z,95395.98
2019-04-04T15:49:58.568Z,95409.56
2019-04-04T15:52:27.929Z,95394.15
2019-04-04T15:54:57.272Z,95409.74
2019-04-04T15:57:26.642Z,95416.46
2019-04-04T15:59:56.001Z,95412.62
2019-04-04T16:02:25.447Z,95414.05
2019-04-04T16:04:54.878Z,95410.75
2019-04-04T16:07:24.316Z,95413.94
2019-04-04T16:09:53.691Z,95405.97
2019-04-04T16:12:23.031Z,95404.30
2019-04-04T16:14:52.410Z,95403.52
2019-04-04T16:17:21.776Z,95407.88
2019-04-04T16:19:51.130Z,95411.27
2019-04-04T16:22:20.496Z,95425.80
2019-04-04T16:24:49.851Z,95429.55
2019-04-04T16:27:19.240Z,95436.47
2019-04-04T16:29:48.586Z,95434.52
2019-04-04T16:32:17.942Z,95433.05
2019-04-04T16:34:47.444Z,95440.27
2019-04-04T16:37:16.876Z,95446.33
2019-04-04T16:39:46.299Z,95464.42
2019-04-04T16:42:15.966Z,95464.42
2019-04-04T16:44:45.311Z,95469.74
2019-04-04T16:47:15.219Z,95477.56
2019-04-04T16:49:44.570Z,95474.11
2019-04-04T16:52:14.025Z,95478.52
2019-04-04T16:54:43.451Z,95475.38
2019-04-04T16:57:12.817Z,95472.38
2019-04-04T16:59:42.177Z,95480.03
2019-04-04T17:02:11.606Z,95485.47
2019-04-04T17:04:41.245Z,95488.00
2019-04-04T17:07:10.680Z,95491.44
2019-04-04T17:09:40.040Z,95514.38
2019-04-04T17:12:14.779Z,95519.06
2019-04-04T17:14:40.515Z,95531.16
2019-04-04T17:17:09.936Z,95540.38
2019-04-04T17:19:39.287Z,95553.77
2019-04-04T17:22:08.659Z,95568.12
2019-04-04T17:24:38.134Z,95586.16
2019-04-04T17:27:07.564Z,95586.70
2019-04-04T17:29:36.992Z,95606.52
2019-04-04T17:32:06.526Z,95614.05
2019-04-04T17:34:35.875Z,95618.45
2019-04-04T17:37:05.363Z,95618.64
2019-04-04T17:39:34.995Z,95614.59
2019-04-04T17:42:04.436Z,95620.79
2019-04-04T17:44:34.291Z,95629.69
2019-04-04T17:47:04.340Z,95630.50
2019-04-04T17:49:34.032Z,95647.05
2019-04-04T17:52:04.141Z,95646.72
2019-04-04T17:54:33.615Z,95635.25
2019-04-04T17:57:02.971Z,95641.20
2019-04-04T17:59:32.325Z,95647.52
2019-04-04T18:02:01.701Z,95663.45
2019-04-04T18:04:31.068Z,95663.23
2019-04-04T18:07:00.445Z,95663.30
2019-04-04T18:09:32.135Z,95676.72
2019-04-04T18:12:00.922Z,95673.55
2019-04-04T18:14:30.329Z,95675.07
2019-04-04T18:16:59.642Z,95677.42
2019-04-04T18:19:29.022Z,95671.44
2019-04-04T18:21:58.462Z,95651.65
2019-04-04T18:24:27.832Z,95634.45
2019-04-04T18:26:57.198Z,95647.79
2019-04-04T18:29:26.606Z,95666.28
2019-04-04T18:31:55.954Z,95683.52
2019-04-04T18:34:25.896Z,95672.49
2019-04-04T18:36:55.435Z,95669.20
2019-04-04T18:39:26.577Z,95666.98
2019-04-04T18:41:55.967Z,95665.03
2019-04-04T18:44:25.340Z,95675.26
2019-04-04T18:46:54.784Z,95683.99
2019-04-04T18:49:24.180Z,95697.98
2019-04-04T18:51:53.547Z,95715.42
2019-04-04T18:54:22.907Z,95747.98
2019-04-04T18:56:52.255Z,95760.94
2019-04-04T18:59:21.638Z,95760.02
2019-04-04T19:01:51.060Z,95765.88
2019-04-04T19:04:20.448Z,95761.61
2019-04-04T19:06:49.884Z,95766.45
2019-04-04T19:09:19.332Z,95776.28
2019-04-04T19:11:48.761Z,95796.20
2019-04-04T19:14:18.198Z,95804.86
2019-04-04T19:16:47.615Z,95806.31
2019-04-04T19:19:17.067Z,95802.50
2019-04-04T19:21:46.419Z,95808.75
2019-04-04T19:24:16.117Z,95801.36
2019-04-04T19:26:45.572Z,95792.39
2019-04-04T19:29:14.920Z,95811.38
2019-04-04T19:31:44.360Z,95796.94
2019-04-04T19:34:13.828Z,95793.02
2019-04-04T19:36:43.302Z,95797.47
2019-04-04T19:39:17.050Z,95806.73
2019-04-04T19:41:46.487Z,95814.09
2019-04-04T19:44:15.950Z,95807.66
2019-04-04T19:46:45.408Z,95812.30
2019-04-04T19:49:14.795Z,95811.56
2019-04-04T19:51:44.253Z,95820.02
2019-04-04T19:54:13.631Z,95806.39
2019-04-04T19:56:43.010Z,95817.12
2019-04-04T19:59:12.382Z,95814.31
2019-04-04T20:01:41.832Z,95806.09
2019-04-04T20:04:11.213Z,95811.08
2019-04-04T20:06:40.603Z,95817.47
2019-04-04T20:09:10.035Z,95817.76
2019-04-04T20:11:39.416Z,95831.21
2019-04-04T20:14:08.871Z,95835.76
2019-04-04T20:16:38.342Z,95837.37
2019-04-04T20:19:07.717Z,95835.78
2019-04-04T20:21:37.131Z,95829.63
2019-04-04T20:24:06.652Z,95851.95
2019-04-04T20:26:36.032Z,95839.84
2019-04-04T20:29:05.468Z,95840.63
2019-04-04T20:31:34.906Z,95839.31
2019-04-04T20:34:06.029Z,95853.84
2019-04-04T20:36:35.366Z,95858.72
2019-04-04T20:39:06.909Z,95844.28
2019-04-04T20:41:36.269Z,95847.46
2019-04-04T20:44:05.848Z,95844.33
2019-04-04T20:46:35.329Z,95849.96
2019-04-04T20:49:04.790Z,95848.95
2019-04-04T20:51:34.176Z,95863.69
2019-04-04T20:54:03.689Z,95868.11
2019-04-04T20:56:33.059Z,95873.84
2019-04-04T20:59:02.427Z,95882.44
2019-04-04T21:01:31.810Z,95888.31
2019-04-04T21:04:01.221Z,95887.88
2019-04-04T21:06:30.591Z,95898.91
2019-04-04T21:09:00.079Z,95901.47
2019-04-04T21:11:29.449Z,95902.02
2019-04-04T21:13:58.811Z,95902.28
2019-04-04T21:16:28.292Z,95907.00
2019-04-04T21:18:57.651Z,95896.34
2019-04-04T21:21:27.431Z,95899.30
2019-04-04T21:23:57.863Z,95901.58
2019-04-04T21:26:27.242Z,95900.31
2019-04-04T21:28:56.610Z,95897.72
2019-04-04T21:31:25.976Z,95900.91
2019-04-04T21:33:55.363Z,95902.30
2019-04-04T21:36:24.841Z,95900.89
2019-04-04T21:38:54.224Z,95900.27
2019-04-04T21:41:23.589Z,95907.05
2019-04-04T21:43:52.974Z,95921.80
2019-04-04T21:46:22.351Z,95928.44
2019-04-04T21:48:51.753Z,95921.80
2019-04-04T21:51:21.181Z,95932.80
2019-04-04T21:53:50.614Z,95924.05
2019-04-04T21:56:19.979Z,95907.11
2019-04-04T21:58:49.354Z,95915.59
2019-04-04T22:01:18.968Z,95923.75
2019-04-04T22:03:48.419Z,95927.75
2019-04-04T22:06:17.867Z,95932.56
2019-04-04T22:08:47.228Z,95930.68
2019-04-04T22:11:16.612Z,95935.04
2019-04-04T22:13:45.978Z,95931.01
2019-04-04T22:16:15.346Z,95944.25
2019-04-04T22:18:44.709Z,95943.22
2019-04-04T22:21:14.075Z,95941.73
2019-04-04T22:23:43.429Z,95955.02
2019-04-04T22:26:12.807Z,95960.56
2019-04-04T22:28:42.191Z,95962.67
2019-04-04T22:31:11.530Z,95962.64
2019-04-04T22:33:40.979Z,95957.36
2019-04-04T22:36:10.412Z,95952.80
2019-04-04T22:38:39.832Z,95950.70
2019-04-04T22:41:09.134Z,95955.13
2019-04-04T22:43:38.510Z,95955.72
2019-04-04T22:46:08.142Z,95952.89
2019-04-04T22:48:37.528Z,95954.61
2019-04-04T22:51:07.254Z,95952.48
2019-04-04T22:53:36.744Z,95961.73
2019-04-04T22:56:06.182Z,95953.13
2019-04-04T22:58:35.548Z,95956.98
2019-04-04T23:01:05.005Z,95948.31
2019-04-04T23:03:34.407Z,95951.28
2019-04-04T23:06:03.859Z,95941.83
2019-04-04T23:08:33.236Z,95944.68
2019-04-04T23:11:02.619Z,95939.63
2019-04-04T23:13:31.995Z,95932.12
2019-04-04T23:16:01.417Z,95928.12
2019-04-04T23:18:30.818Z,95928.92
2019-04-04T23:21:00.182Z,95941.72
2019-04-04T23:23:29.560Z,95937.52
2019-04-04T23:25:58.919Z,95943.81
2019-04-04T23:28:28.366Z,95940.14
2019-04-04T23:30:57.810Z,95943.36
2019-04-04T23:33:27.182Z,95945.75
2019-04-04T23:35:56.541Z,95940.38
2019-04-04T23:38:25.941Z,95940.12
2019-04-04T23:40:55.374Z,95934.88
2019-04-04T23:43:24.738Z,95942.62
2019-04-04T23:45:54.094Z,95932.44
2019-04-04T23:48:23.473Z,95936.17
2019-04-04T23:50:52.841Z,95937.52
2019-04-04T23:53:22.202Z,95946.41
2019-04-04T23:55:51.603Z,95932.59
2019-04-04T23:58:20.984Z,95925.38
